sensor_id;sensor_type;location;lat;lon;timestamp;temperature;humidity
528;DHT22;250;47.712;7.508;2022-08-21T00:02:14;20.10;41.10
528;DHT22;250;47.712;7.508;2022-08-21T00:04:42;20.00;41.60
528;DHT22;250;47.712;7.508;2022-08-21T00:07:10;19.90;41.60
528;DHT22;250;47.712;7.508;2022-08-21T00:09:38;19.90;41.20
528;DHT22;250;47.712;7.508;2022-08-21T00:12:05;19.90;41.00
528;DHT22;250;47.712;7.508;2022-08-21T00:14:32;20.00;41.00
528;DHT22;250;47.712;7.508;2022-08-21T00:17:00;20.10;40.50
528;DHT22;250;47.712;7.508;2022-08-21T00:19:28;20.00;40.30
528;DHT22;250;47.712;7.508;2022-08-21T00:21:55;20.00;40.60
528;DHT22;250;47.712;7.508;2022-08-21T00:24:23;20.00;40.80
528;DHT22;250;47.712;7.508;2022-08-21T00:26:51;19.90;41.10
528;DHT22;250;47.712;7.508;2022-08-21T00:29:18;19.80;42.00
528;DHT22;250;47.712;7.508;2022-08-21T00:31:45;19.80;42.10
528;DHT22;250;47.712;7.508;2022-08-21T00:34:13;19.70;42.00
528;DHT22;250;47.712;7.508;2022-08-21T00:36:40;19.70;41.90
528;DHT22;250;47.712;7.508;2022-08-21T00:39:08;19.80;41.20
528;DHT22;250;47.712;7.508;2022-08-21T00:41:38;19.70;41.30
528;DHT22;250;47.712;7.508;2022-08-21T00:44:07;19.70;41.40
528;DHT22;250;47.712;7.508;2022-08-21T00:46:35;19.60;40.70
528;DHT22;250;47.712;7.508;2022-08-21T00:49:02;19.50;40.80
528;DHT22;250;47.712;7.508;2022-08-21T00:51:35;19.40;41.00
528;DHT22;250;47.712;7.508;2022-08-21T00:54:03;19.40;40.90
528;DHT22;250;47.712;7.508;2022-08-21T00:56:31;19.30;41.00
528;DHT22;250;47.712;7.508;2022-08-21T00:58:59;19.30;41.10
528;DHT22;250;47.712;7.508;2022-08-21T01:01:27;19.20;41.30
528;DHT22;250;47.712;7.508;2022-08-21T01:03:54;19.20;41.40
528;DHT22;250;47.712;7.508;2022-08-21T01:06:22;19.30;41.20
528;DHT22;250;47.712;7.508;2022-08-21T01:08:49;19.30;41.60
528;DHT22;250;47.712;7.508;2022-08-21T01:11:16;19.30;42.50
528;DHT22;250;47.712;7.508;2022-08-21T01:13:43;19.30;43.00
528;DHT22;250;47.712;7.508;2022-08-21T01:16:17;19.30;42.80
528;DHT22;250;47.712;7.508;2022-08-21T01:18:45;19.50;41.60
528;DHT22;250;47.712;7.508;2022-08-21T01:21:17;19.50;41.40
528;DHT22;250;47.712;7.508;2022-08-21T01:23:46;19.50;41.30
528;DHT22;250;47.712;7.508;2022-08-21T01:26:16;19.50;41.40
528;DHT22;250;47.712;7.508;2022-08-21T01:28:47;19.60;41.60
528;DHT22;250;47.712;7.508;2022-08-21T01:31:17;19.50;42.80
528;DHT22;250;47.712;7.508;2022-08-21T01:33:46;19.50;41.60
528;DHT22;250;47.712;7.508;2022-08-21T01:36:15;19.50;40.90
528;DHT22;250;47.712;7.508;2022-08-21T01:38:42;19.50;40.60
528;DHT22;250;47.712;7.508;2022-08-21T01:41:09;19.40;41.40
528;DHT22;250;47.712;7.508;2022-08-21T01:43:36;19.30;40.80
528;DHT22;250;47.712;7.508;2022-08-21T01:46:03;19.30;41.00
528;DHT22;250;47.712;7.508;2022-08-21T01:48:30;19.30;40.30
528;DHT22;250;47.712;7.508;2022-08-21T01:50:58;19.30;39.60
528;DHT22;250;47.712;7.508;2022-08-21T01:53:27;19.20;40.00
528;DHT22;250;47.712;7.508;2022-08-21T01:55:54;19.20;40.80
528;DHT22;250;47.712;7.508;2022-08-21T01:58:21;19.20;41.10
528;DHT22;250;47.712;7.508;2022-08-21T02:00:48;19.30;40.80
528;DHT22;250;47.712;7.508;2022-08-21T02:03:16;19.30;41.40
528;DHT22;250;47.712;7.508;2022-08-21T02:05:43;19.20;41.90
528;DHT22;250;47.712;7.508;2022-08-21T02:08:10;19.10;42.00
528;DHT22;250;47.712;7.508;2022-08-21T02:10:39;19.10;42.90
528;DHT22;250;47.712;7.508;2022-08-21T02:13:07;19.10;42.20
528;DHT22;250;47.712;7.508;2022-08-21T02:15:34;19.20;41.80
528;DHT22;250;47.712;7.508;2022-08-21T02:18:02;19.20;41.80
528;DHT22;250;47.712;7.508;2022-08-21T02:20:33;19.20;42.60
528;DHT22;250;47.712;7.508;2022-08-21T02:23:01;19.20;42.10
528;DHT22;250;47.712;7.508;2022-08-21T02:25:28;19.20;41.70
528;DHT22;250;47.712;7.508;2022-08-21T02:27:58;19.20;41.90
528;DHT22;250;47.712;7.508;2022-08-21T02:30:29;19.10;42.10
528;DHT22;250;47.712;7.508;2022-08-21T02:32:57;19.10;42.70
528;DHT22;250;47.712;7.508;2022-08-21T02:35:24;19.10;43.00
528;DHT22;250;47.712;7.508;2022-08-21T02:37:53;19.10;42.60
528;DHT22;250;47.712;7.508;2022-08-21T02:40:23;19.10;43.00
528;DHT22;250;47.712;7.508;2022-08-21T02:42:50;19.00;42.90
528;DHT22;250;47.712;7.508;2022-08-21T02:45:19;19.00;42.90
528;DHT22;250;47.712;7.508;2022-08-21T02:47:50;19.00;42.90
528;DHT22;250;47.712;7.508;2022-08-21T02:50:19;19.00;42.70
528;DHT22;250;47.712;7.508;2022-08-21T02:52:47;19.00;42.50
528;DHT22;250;47.712;7.508;2022-08-21T02:55:15;19.00;42.90
528;DHT22;250;47.712;7.508;2022-08-21T02:57:42;18.90;42.80
528;DHT22;250;47.712;7.508;2022-08-21T03:00:10;18.90;42.80
528;DHT22;250;47.712;7.508;2022-08-21T03:02:39;18.90;42.80
528;DHT22;250;47.712;7.508;2022-08-21T03:05:08;18.90;42.80
528;DHT22;250;47.712;7.508;2022-08-21T03:07:35;18.80;42.90
528;DHT22;250;47.712;7.508;2022-08-21T03:10:03;18.80;42.90
528;DHT22;250;47.712;7.508;2022-08-21T03:12:30;18.80;42.80
528;DHT22;250;47.712;7.508;2022-08-21T03:14:57;18.80;42.70
528;DHT22;250;47.712;7.508;2022-08-21T03:17:25;18.80;43.20
528;DHT22;250;47.712;7.508;2022-08-21T03:19:54;18.80;43.50
528;DHT22;250;47.712;7.508;2022-08-21T03:22:22;18.90;43.30
528;DHT22;250;47.712;7.508;2022-08-21T03:24:49;18.90;42.80
528;DHT22;250;47.712;7.508;2022-08-21T03:27:16;18.90;42.80
528;DHT22;250;47.712;7.508;2022-08-21T03:29:44;18.90;42.80
528;DHT22;250;47.712;7.508;2022-08-21T03:32:11;18.90;42.80
528;DHT22;250;47.712;7.508;2022-08-21T03:34:39;19.00;42.30
528;DHT22;250;47.712;7.508;2022-08-21T03:37:07;19.00;42.90
528;DHT22;250;47.712;7.508;2022-08-21T03:39:35;18.90;42.80
528;DHT22;250;47.712;7.508;2022-08-21T03:42:03;18.90;42.70
528;DHT22;250;47.712;7.508;2022-08-21T03:44:31;18.90;42.00
528;DHT22;250;47.712;7.508;2022-08-21T03:46:58;18.90;42.00
528;DHT22;250;47.712;7.508;2022-08-21T03:49:25;18.90;41.40
528;DHT22;250;47.712;7.508;2022-08-21T03:51:52;18.90;41.40
528;DHT22;250;47.712;7.508;2022-08-21T03:54:21;18.80;41.20
528;DHT22;250;47.712;7.508;2022-08-21T03:56:48;18.80;40.90
528;DHT22;250;47.712;7.508;2022-08-21T03:59:15;18.80;40.90
528;DHT22;250;47.712;7.508;2022-08-21T04:01:52;18.80;40.90
528;DHT22;250;47.712;7.508;2022-08-21T04:04:19;18.90;40.20
528;DHT22;250;47.712;7.508;2022-08-21T04:06:46;19.00;40.30
528;DHT22;250;47.712;7.508;2022-08-21T04:09:15;18.90;40.60
528;DHT22;250;47.712;7.508;2022-08-21T04:11:44;18.90;41.10
528;DHT22;250;47.712;7.508;2022-08-21T04:14:11;18.90;40.60
528;DHT22;250;47.712;7.508;2022-08-21T04:16:39;19.00;40.20
528;DHT22;250;47.712;7.508;2022-08-21T04:19:07;19.00;40.40
528;DHT22;250;47.712;7.508;2022-08-21T04:21:35;19.00;40.20
528;DHT22;250;47.712;7.508;2022-08-21T04:24:03;19.00;40.20
528;DHT22;250;47.712;7.508;2022-08-21T04:26:31;19.00;40.40
528;DHT22;250;47.712;7.508;2022-08-21T04:29:01;19.00;41.00
528;DHT22;250;47.712;7.508;2022-08-21T04:31:28;19.00;40.80
528;DHT22;250;47.712;7.508;2022-08-21T04:33:55;18.90;41.30
528;DHT22;250;47.712;7.508;2022-08-21T04:36:23;19.00;40.20
528;DHT22;250;47.712;7.508;2022-08-21T04:38:50;18.80;40.10
528;DHT22;250;47.712;7.508;2022-08-21T04:41:17;18.80;40.60
528;DHT22;250;47.712;7.508;2022-08-21T04:43:44;18.70;40.30
528;DHT22;250;47.712;7.508;2022-08-21T04:46:12;18.70;40.30
528;DHT22;250;47.712;7.508;2022-08-21T04:48:39;18.70;40.30
528;DHT22;250;47.712;7.508;2022-08-21T04:51:11;18.80;39.70
528;DHT22;250;47.712;7.508;2022-08-21T04:53:43;18.70;39.60
528;DHT22;250;47.712;7.508;2022-08-21T04:56:14;18.80;39.60
528;DHT22;250;47.712;7.508;2022-08-21T04:58:42;18.80;39.70
528;DHT22;250;47.712;7.508;2022-08-21T05:01:13;18.70;41.00
528;DHT22;250;47.712;7.508;2022-08-21T05:03:42;18.60;41.20
528;DHT22;250;47.712;7.508;2022-08-21T05:06:11;18.70;41.40
528;DHT22;250;47.712;7.508;2022-08-21T05:08:40;18.60;41.40
528;DHT22;250;47.712;7.508;2022-08-21T05:11:09;18.60;41.70
528;DHT22;250;47.712;7.508;2022-08-21T05:13:36;18.60;41.20
528;DHT22;250;47.712;7.508;2022-08-21T05:16:03;18.60;41.50
528;DHT22;250;47.712;7.508;2022-08-21T05:20:59;18.60;41.70
528;DHT22;250;47.712;7.508;2022-08-21T05:23:26;18.60;42.00
528;DHT22;250;47.712;7.508;2022-08-21T05:25:53;18.60;42.50
528;DHT22;250;47.712;7.508;2022-08-21T05:28:20;18.60;42.50
528;DHT22;250;47.712;7.508;2022-08-21T05:30:47;18.60;42.50
528;DHT22;250;47.712;7.508;2022-08-21T05:33:15;18.60;42.50
528;DHT22;250;47.712;7.508;2022-08-21T05:35:43;18.70;41.50
528;DHT22;250;47.712;7.508;2022-08-21T05:38:10;18.70;40.90
528;DHT22;250;47.712;7.508;2022-08-21T05:40:37;18.60;41.60
528;DHT22;250;47.712;7.508;2022-08-21T05:43:04;18.50;41.90
528;DHT22;250;47.712;7.508;2022-08-21T05:45:32;18.60;41.80
528;DHT22;250;47.712;7.508;2022-08-21T05:48:06;18.70;41.80
528;DHT22;250;47.712;7.508;2022-08-21T05:50:33;18.70;42.50
528;DHT22;250;47.712;7.508;2022-08-21T05:53:02;18.70;42.20
528;DHT22;250;47.712;7.508;2022-08-21T05:55:29;18.70;42.60
528;DHT22;250;47.712;7.508;2022-08-21T05:57:56;18.60;43.00
528;DHT22;250;47.712;7.508;2022-08-21T06:00:23;18.60;43.50
528;DHT22;250;47.712;7.508;2022-08-21T06:02:50;18.60;44.50
528;DHT22;250;47.712;7.508;2022-08-21T06:05:17;18.60;45.10
528;DHT22;250;47.712;7.508;2022-08-21T06:07:45;18.70;45.30
528;DHT22;250;47.712;7.508;2022-08-21T06:10:13;18.70;45.90
528;DHT22;250;47.712;7.508;2022-08-21T06:12:40;18.80;46.20
528;DHT22;250;47.712;7.508;2022-08-21T06:15:08;18.80;47.00
528;DHT22;250;47.712;7.508;2022-08-21T06:17:35;18.80;47.50
528;DHT22;250;47.712;7.508;2022-08-21T06:20:03;18.90;47.60
528;DHT22;250;47.712;7.508;2022-08-21T06:22:30;19.00;47.70
528;DHT22;250;47.712;7.508;2022-08-21T06:24:57;19.00;47.80
528;DHT22;250;47.712;7.508;2022-08-21T06:27:25;18.90;48.30
528;DHT22;250;47.712;7.508;2022-08-21T06:29:52;19.00;48.90
528;DHT22;250;47.712;7.508;2022-08-21T06:32:22;19.10;47.80
528;DHT22;250;47.712;7.508;2022-08-21T06:34:49;19.10;47.00
528;DHT22;250;47.712;7.508;2022-08-21T06:37:15;19.00;47.80
528;DHT22;250;47.712;7.508;2022-08-21T06:39:42;19.00;47.70
528;DHT22;250;47.712;7.508;2022-08-21T06:42:13;19.10;47.60
528;DHT22;250;47.712;7.508;2022-08-21T06:44:42;19.00;47.70
528;DHT22;250;47.712;7.508;2022-08-21T06:47:09;19.10;47.40
528;DHT22;250;47.712;7.508;2022-08-21T06:49:36;19.20;47.90
528;DHT22;250;47.712;7.508;2022-08-21T06:52:03;19.20;47.90
528;DHT22;250;47.712;7.508;2022-08-21T06:54:35;19.20;47.90
528;DHT22;250;47.712;7.508;2022-08-21T06:57:02;19.20;48.00
528;DHT22;250;47.712;7.508;2022-08-21T06:59:29;19.40;48.40
528;DHT22;250;47.712;7.508;2022-08-21T07:01:57;19.40;48.90
528;DHT22;250;47.712;7.508;2022-08-21T07:04:25;19.50;48.20
528;DHT22;250;47.712;7.508;2022-08-21T07:06:52;19.60;48.30
528;DHT22;250;47.712;7.508;2022-08-21T07:09:19;19.70;46.70
528;DHT22;250;47.712;7.508;2022-08-21T07:11:50;19.70;46.60
528;DHT22;250;47.712;7.508;2022-08-21T07:14:18;19.80;46.00
528;DHT22;250;47.712;7.508;2022-08-21T07:16:45;19.80;46.00
528;DHT22;250;47.712;7.508;2022-08-21T07:19:13;19.80;45.30
528;DHT22;250;47.712;7.508;2022-08-21T07:21:40;19.80;45.60
528;DHT22;250;47.712;7.508;2022-08-21T07:24:08;19.90;45.60
528;DHT22;250;47.712;7.508;2022-08-21T07:26:35;20.00;45.00
528;DHT22;250;47.712;7.508;2022-08-21T07:29:03;20.10;44.80
528;DHT22;250;47.712;7.508;2022-08-21T07:31:30;20.10;43.90
528;DHT22;250;47.712;7.508;2022-08-21T07:33:58;20.30;44.10
528;DHT22;250;47.712;7.508;2022-08-21T07:36:26;20.30;42.30
528;DHT22;250;47.712;7.508;2022-08-21T07:38:53;20.40;42.40
528;DHT22;250;47.712;7.508;2022-08-21T07:41:22;20.50;41.70
528;DHT22;250;47.712;7.508;2022-08-21T07:43:50;20.60;41.40
528;DHT22;250;47.712;7.508;2022-08-21T07:46:17;20.60;40.90
528;DHT22;250;47.712;7.508;2022-08-21T07:48:44;20.70;40.70
528;DHT22;250;47.712;7.508;2022-08-21T07:51:14;20.80;40.50
528;DHT22;250;47.712;7.508;2022-08-21T07:53:48;20.80;39.60
528;DHT22;250;47.712;7.508;2022-08-21T07:56:15;20.90;39.30
528;DHT22;250;47.712;7.508;2022-08-21T07:58:42;21.00;38.70
528;DHT22;250;47.712;7.508;2022-08-21T08:01:09;21.00;38.40
528;DHT22;250;47.712;7.508;2022-08-21T08:03:37;21.00;36.40
528;DHT22;250;47.712;7.508;2022-08-21T08:06:04;21.00;36.70
528;DHT22;250;47.712;7.508;2022-08-21T08:08:34;21.10;36.00
528;DHT22;250;47.712;7.508;2022-08-21T08:11:02;21.10;35.90
528;DHT22;250;47.712;7.508;2022-08-21T08:13:29;21.20;35.00
528;DHT22;250;47.712;7.508;2022-08-21T08:15:56;21.20;34.50
528;DHT22;250;47.712;7.508;2022-08-21T08:18:23;21.20;35.00
528;DHT22;250;47.712;7.508;2022-08-21T08:20:50;21.20;35.00
528;DHT22;250;47.712;7.508;2022-08-21T08:23:17;21.20;35.00
528;DHT22;250;47.712;7.508;2022-08-21T08:25:44;21.20;34.70
528;DHT22;250;47.712;7.508;2022-08-21T08:28:13;21.20;34.80
528;DHT22;250;47.712;7.508;2022-08-21T08:30:40;21.30;35.10
528;DHT22;250;47.712;7.508;2022-08-21T08:33:08;21.30;34.50
528;DHT22;250;47.712;7.508;2022-08-21T08:35:35;21.40;33.70
528;DHT22;250;47.712;7.508;2022-08-21T08:38:03;21.50;33.50
528;DHT22;250;47.712;7.508;2022-08-21T08:40:32;21.50;33.20
528;DHT22;250;47.712;7.508;2022-08-21T08:43:03;21.50;33.80
528;DHT22;250;47.712;7.508;2022-08-21T08:45:36;21.60;33.00
528;DHT22;250;47.712;7.508;2022-08-21T08:48:08;21.70;33.50
528;DHT22;250;47.712;7.508;2022-08-21T08:50:40;21.80;31.70
528;DHT22;250;47.712;7.508;2022-08-21T08:53:11;21.90;32.10
528;DHT22;250;47.712;7.508;2022-08-21T08:55:41;21.90;32.20
528;DHT22;250;47.712;7.508;2022-08-21T08:58:13;22.00;32.30
528;DHT22;250;47.712;7.508;2022-08-21T09:00:52;22.10;31.00
528;DHT22;250;47.712;7.508;2022-08-21T09:03:21;22.10;30.60
528;DHT22;250;47.712;7.508;2022-08-21T09:05:53;22.00;30.70
528;DHT22;250;47.712;7.508;2022-08-21T09:08:40;21.90;30.60
528;DHT22;250;47.712;7.508;2022-08-21T09:11:15;21.80;31.40
528;DHT22;250;47.712;7.508;2022-08-21T09:13:50;21.90;31.50
528;DHT22;250;47.712;7.508;2022-08-21T09:16:30;22.00;30.80
528;DHT22;250;47.712;7.508;2022-08-21T09:19:07;22.10;30.60
528;DHT22;250;47.712;7.508;2022-08-21T09:21:40;22.30;29.50
528;DHT22;250;47.712;7.508;2022-08-21T09:24:21;22.30;30.00
528;DHT22;250;47.712;7.508;2022-08-21T09:26:59;22.40;29.30
528;DHT22;250;47.712;7.508;2022-08-21T09:29:31;22.50;29.20
528;DHT22;250;47.712;7.508;2022-08-21T09:32:02;22.60;29.00
528;DHT22;250;47.712;7.508;2022-08-21T09:34:31;22.70;28.00
528;DHT22;250;47.712;7.508;2022-08-21T09:36:58;22.80;27.70
528;DHT22;250;47.712;7.508;2022-08-21T09:39:29;22.80;27.20
528;DHT22;250;47.712;7.508;2022-08-21T09:41:59;22.90;27.10
528;DHT22;250;47.712;7.508;2022-08-21T09:44:28;23.00;26.40
528;DHT22;250;47.712;7.508;2022-08-21T09:46:55;23.00;26.70
528;DHT22;250;47.712;7.508;2022-08-21T09:49:32;23.10;27.00
528;DHT22;250;47.712;7.508;2022-08-21T09:52:00;23.10;25.50
528;DHT22;250;47.712;7.508;2022-08-21T09:54:30;23.10;25.50
528;DHT22;250;47.712;7.508;2022-08-21T09:57:00;23.00;25.40
528;DHT22;250;47.712;7.508;2022-08-21T09:59:46;22.90;25.30
528;DHT22;250;47.712;7.508;2022-08-21T10:02:26;23.10;24.80
528;DHT22;250;47.712;7.508;2022-08-21T10:04:56;23.20;24.30
528;DHT22;250;47.712;7.508;2022-08-21T10:07:26;23.40;25.00
528;DHT22;250;47.712;7.508;2022-08-21T10:10:06;23.50;24.50
528;DHT22;250;47.712;7.508;2022-08-21T10:12:41;23.60;24.70
528;DHT22;250;47.712;7.508;2022-08-21T10:15:18;23.60;24.80
528;DHT22;250;47.712;7.508;2022-08-21T10:17:54;23.60;23.70
528;DHT22;250;47.712;7.508;2022-08-21T10:20:28;23.70;24.40
528;DHT22;250;47.712;7.508;2022-08-21T10:23:18;23.70;23.80
528;DHT22;250;47.712;7.508;2022-08-21T10:25:52;23.90;23.20
528;DHT22;250;47.712;7.508;2022-08-21T10:28:29;23.90;23.60
528;DHT22;250;47.712;7.508;2022-08-21T10:31:06;24.00;23.30
528;DHT22;250;47.712;7.508;2022-08-21T10:33:42;24.10;23.30
528;DHT22;250;47.712;7.508;2022-08-21T10:36:16;24.10;23.30
528;DHT22;250;47.712;7.508;2022-08-21T10:38:58;24.10;22.90
528;DHT22;250;47.712;7.508;2022-08-21T10:41:44;24.10;23.80
528;DHT22;250;47.712;7.508;2022-08-21T10:44:23;24.20;22.90
528;DHT22;250;47.712;7.508;2022-08-21T10:46:56;24.40;22.70
528;DHT22;250;47.712;7.508;2022-08-21T10:49:34;24.30;21.80
528;DHT22;250;47.712;7.508;2022-08-21T10:52:24;24.30;21.80
528;DHT22;250;47.712;7.508;2022-08-21T10:54:57;24.40;22.70
528;DHT22;250;47.712;7.508;2022-08-21T10:57:32;24.50;22.70
528;DHT22;250;47.712;7.508;2022-08-21T11:00:03;24.60;23.50
528;DHT22;250;47.712;7.508;2022-08-21T11:02:38;24.80;22.80
528;DHT22;250;47.712;7.508;2022-08-21T11:05:11;25.00;22.50
528;DHT22;250;47.712;7.508;2022-08-21T11:07:47;25.00;22.00
528;DHT22;250;47.712;7.508;2022-08-21T11:10:21;25.10;21.30
528;DHT22;250;47.712;7.508;2022-08-21T11:12:52;25.10;21.90
528;DHT22;250;47.712;7.508;2022-08-21T11:15:33;25.20;21.60
528;DHT22;250;47.712;7.508;2022-08-21T11:18:14;25.30;21.50
528;DHT22;250;47.712;7.508;2022-08-21T11:20:46;25.40;21.20
528;DHT22;250;47.712;7.508;2022-08-21T11:23:22;25.30;20.70
528;DHT22;250;47.712;7.508;2022-08-21T11:25:55;25.20;20.60
528;DHT22;250;47.712;7.508;2022-08-21T11:28:28;25.00;20.50
528;DHT22;250;47.712;7.508;2022-08-21T11:31:08;24.80;20.40
528;DHT22;250;47.712;7.508;2022-08-21T11:33:51;24.80;20.90
528;DHT22;250;47.712;7.508;2022-08-21T11:36:24;24.90;20.50
528;DHT22;250;47.712;7.508;2022-08-21T11:39:04;25.00;20.50
528;DHT22;250;47.712;7.508;2022-08-21T11:41:37;25.00;20.00
528;DHT22;250;47.712;7.508;2022-08-21T11:44:13;25.10;20.60
528;DHT22;250;47.712;7.508;2022-08-21T11:46:48;25.30;20.30
528;DHT22;250;47.712;7.508;2022-08-21T11:49:34;25.40;19.40
528;DHT22;250;47.712;7.508;2022-08-21T11:52:10;25.60;18.40
528;DHT22;250;47.712;7.508;2022-08-21T11:54:46;25.60;17.90
528;DHT22;250;47.712;7.508;2022-08-21T11:57:18;25.80;18.10
528;DHT22;250;47.712;7.508;2022-08-21T11:59:54;25.70;16.90
528;DHT22;250;47.712;7.508;2022-08-21T12:02:29;25.80;17.60
528;DHT22;250;47.712;7.508;2022-08-21T12:05:00;25.90;18.30
528;DHT22;250;47.712;7.508;2022-08-21T12:07:31;25.80;17.70
528;DHT22;250;47.712;7.508;2022-08-21T12:10:02;25.70;17.70
528;DHT22;250;47.712;7.508;2022-08-21T12:12:32;25.70;17.80
528;DHT22;250;47.712;7.508;2022-08-21T12:15:32;25.80;18.40
528;DHT22;250;47.712;7.508;2022-08-21T12:18:01;25.80;16.80
528;DHT22;250;47.712;7.508;2022-08-21T12:20:39;25.60;18.20
528;DHT22;250;47.712;7.508;2022-08-21T12:23:17;25.60;18.00
528;DHT22;250;47.712;7.508;2022-08-21T12:25:58;25.60;16.60
528;DHT22;250;47.712;7.508;2022-08-21T12:28:27;25.80;17.30
528;DHT22;250;47.712;7.508;2022-08-21T12:30:55;25.90;15.30
528;DHT22;250;47.712;7.508;2022-08-21T12:33:26;25.70;15.50
528;DHT22;250;47.712;7.508;2022-08-21T12:36:03;25.60;16.00
528;DHT22;250;47.712;7.508;2022-08-21T12:38:34;25.50;15.70
528;DHT22;250;47.712;7.508;2022-08-21T12:41:17;25.50;17.30
528;DHT22;250;47.712;7.508;2022-08-21T12:43:48;25.60;16.40
528;DHT22;250;47.712;7.508;2022-08-21T12:46:19;25.70;16.50
528;DHT22;250;47.712;7.508;2022-08-21T12:48:52;25.80;16.50
528;DHT22;250;47.712;7.508;2022-08-21T12:51:24;26.00;15.40
528;DHT22;250;47.712;7.508;2022-08-21T12:53:54;26.10;15.30
528;DHT22;250;47.712;7.508;2022-08-21T12:56:24;26.30;14.90
528;DHT22;250;47.712;7.508;2022-08-21T12:58:53;26.20;14.70
528;DHT22;250;47.712;7.508;2022-08-21T13:01:25;26.20;15.30
528;DHT22;250;47.712;7.508;2022-08-21T13:03:56;26.30;15.10
528;DHT22;250;47.712;7.508;2022-08-21T13:06:25;26.40;14.60
528;DHT22;250;47.712;7.508;2022-08-21T13:08:58;26.40;14.00
528;DHT22;250;47.712;7.508;2022-08-21T13:11:32;26.50;14.80
528;DHT22;250;47.712;7.508;2022-08-21T13:14:00;26.50;14.30
528;DHT22;250;47.712;7.508;2022-08-21T13:16:29;26.50;13.90
528;DHT22;250;47.712;7.508;2022-08-21T13:19:00;26.50;13.90
528;DHT22;250;47.712;7.508;2022-08-21T13:21:30;26.50;12.90
528;DHT22;250;47.712;7.508;2022-08-21T13:24:15;26.40;12.80
528;DHT22;250;47.712;7.508;2022-08-21T13:26:43;26.40;13.00
528;DHT22;250;47.712;7.508;2022-08-21T13:29:12;26.40;13.70
528;DHT22;250;47.712;7.508;2022-08-21T13:31:46;26.50;12.90
528;DHT22;250;47.712;7.508;2022-08-21T13:34:14;26.70;13.00
528;DHT22;250;47.712;7.508;2022-08-21T13:36:43;26.90;13.00
528;DHT22;250;47.712;7.508;2022-08-21T13:39:12;27.00;13.00
528;DHT22;250;47.712;7.508;2022-08-21T13:41:45;27.20;12.70
528;DHT22;250;47.712;7.508;2022-08-21T13:44:17;27.30;11.80
528;DHT22;250;47.712;7.508;2022-08-21T13:46:45;27.40;11.70
528;DHT22;250;47.712;7.508;2022-08-21T13:49:14;27.50;11.70
528;DHT22;250;47.712;7.508;2022-08-21T13:51:43;27.50;9.90
528;DHT22;250;47.712;7.508;2022-08-21T13:54:15;27.60;10.90
528;DHT22;250;47.712;7.508;2022-08-21T13:56:45;27.60;10.50
528;DHT22;250;47.712;7.508;2022-08-21T13:59:24;27.60;11.00
528;DHT22;250;47.712;7.508;2022-08-21T14:01:54;27.60;9.70
528;DHT22;250;47.712;7.508;2022-08-21T14:04:29;27.60;10.20
528;DHT22;250;47.712;7.508;2022-08-21T14:06:57;27.50;10.30
528;DHT22;250;47.712;7.508;2022-08-21T14:09:28;27.50;10.00
528;DHT22;250;47.712;7.508;2022-08-21T14:11:59;27.50;9.80
528;DHT22;250;47.712;7.508;2022-08-21T14:14:29;27.60;9.50
528;DHT22;250;47.712;7.508;2022-08-21T14:16:59;27.60;9.50
528;DHT22;250;47.712;7.508;2022-08-21T14:19:34;27.60;9.90
528;DHT22;250;47.712;7.508;2022-08-21T14:22:26;27.70;9.70
528;DHT22;250;47.712;7.508;2022-08-21T14:24:59;27.70;9.20
528;DHT22;250;47.712;7.508;2022-08-21T14:27:28;27.80;8.30
528;DHT22;250;47.712;7.508;2022-08-21T14:29:59;27.80;8.10
528;DHT22;250;47.712;7.508;2022-08-21T14:32:28;27.80;9.00
528;DHT22;250;47.712;7.508;2022-08-21T14:34:56;27.80;9.00
528;DHT22;250;47.712;7.508;2022-08-21T14:37:23;27.80;9.30
528;DHT22;250;47.712;7.508;2022-08-21T14:39:52;27.80;7.90
528;DHT22;250;47.712;7.508;2022-08-21T14:42:19;27.80;8.90
528;DHT22;250;47.712;7.508;2022-08-21T14:44:47;27.80;9.10
528;DHT22;250;47.712;7.508;2022-08-21T14:47:14;27.90;7.90
528;DHT22;250;47.712;7.508;2022-08-21T14:49:41;27.90;6.60
528;DHT22;250;47.712;7.508;2022-08-21T14:52:08;27.80;7.30
528;DHT22;250;47.712;7.508;2022-08-21T14:54:36;27.70;7.70
528;DHT22;250;47.712;7.508;2022-08-21T14:57:08;27.60;7.70
528;DHT22;250;47.712;7.508;2022-08-21T14:59:37;27.60;8.40
528;DHT22;250;47.712;7.508;2022-08-21T15:02:05;27.60;8.00
528;DHT22;250;47.712;7.508;2022-08-21T15:04:32;27.60;8.20
528;DHT22;250;47.712;7.508;2022-08-21T15:07:00;27.60;8.20
528;DHT22;250;47.712;7.508;2022-08-21T15:09:27;27.60;7.70
528;DHT22;250;47.712;7.508;2022-08-21T15:11:56;27.60;8.40
528;DHT22;250;47.712;7.508;2022-08-21T15:14:30;27.60;7.20
528;DHT22;250;47.712;7.508;2022-08-21T15:16:57;27.60;5.60
528;DHT22;250;47.712;7.508;2022-08-21T15:19:25;27.50;6.00
528;DHT22;250;47.712;7.508;2022-08-21T15:21:53;27.40;6.30
528;DHT22;250;47.712;7.508;2022-08-21T15:24:20;27.50;6.70
528;DHT22;250;47.712;7.508;2022-08-21T15:26:47;27.50;6.50
528;DHT22;250;47.712;7.508;2022-08-21T15:29:15;27.60;5.70
528;DHT22;250;47.712;7.508;2022-08-21T15:31:53;27.60;6.00
528;DHT22;250;47.712;7.508;2022-08-21T15:34:21;27.60;6.90
528;DHT22;250;47.712;7.508;2022-08-21T15:36:48;27.60;5.90
528;DHT22;250;47.712;7.508;2022-08-21T15:39:15;27.60;5.80
528;DHT22;250;47.712;7.508;2022-08-21T15:41:43;27.60;6.00
528;DHT22;250;47.712;7.508;2022-08-21T15:44:11;27.60;5.50
528;DHT22;250;47.712;7.508;2022-08-21T15:46:40;27.60;4.80
528;DHT22;250;47.712;7.508;2022-08-21T15:49:08;27.60;4.80
528;DHT22;250;47.712;7.508;2022-08-21T15:51:35;27.50;4.70
528;DHT22;250;47.712;7.508;2022-08-21T15:54:02;27.50;4.70
528;DHT22;250;47.712;7.508;2022-08-21T15:56:34;27.40;4.00
528;DHT22;250;47.712;7.508;2022-08-21T15:59:05;27.30;4.60
528;DHT22;250;47.712;7.508;2022-08-21T16:01:34;27.30;2.70
528;DHT22;250;47.712;7.508;2022-08-21T16:04:02;27.30;2.30
528;DHT22;250;47.712;7.508;2022-08-21T16:06:31;27.30;3.10
528;DHT22;250;47.712;7.508;2022-08-21T16:08:59;27.30;2.20
528;DHT22;250;47.712;7.508;2022-08-21T16:11:26;27.30;2.50
528;DHT22;250;47.712;7.508;2022-08-21T16:13:54;27.30;2.70
528;DHT22;250;47.712;7.508;2022-08-21T16:16:23;27.30;3.40
528;DHT22;250;47.712;7.508;2022-08-21T16:18:51;27.30;3.50
528;DHT22;250;47.712;7.508;2022-08-21T16:21:19;27.30;4.20
528;DHT22;250;47.712;7.508;2022-08-21T16:23:47;27.30;4.60
528;DHT22;250;47.712;7.508;2022-08-21T16:26:16;27.30;2.70
528;DHT22;250;47.712;7.508;2022-08-21T16:28:44;27.30;3.10
528;DHT22;250;47.712;7.508;2022-08-21T16:31:12;27.30;3.40
528;DHT22;250;47.712;7.508;2022-08-21T16:33:42;27.20;3.40
528;DHT22;250;47.712;7.508;2022-08-21T16:36:11;27.20;2.40
528;DHT22;250;47.712;7.508;2022-08-21T16:38:39;27.20;3.10
528;DHT22;250;47.712;7.508;2022-08-21T16:41:11;27.20;2.80
528;DHT22;250;47.712;7.508;2022-08-21T16:43:39;27.10;3.80
528;DHT22;250;47.712;7.508;2022-08-21T16:46:09;27.10;3.50
528;DHT22;250;47.712;7.508;2022-08-21T16:48:36;27.10;3.50
528;DHT22;250;47.712;7.508;2022-08-21T16:51:04;27.00;3.10
528;DHT22;250;47.712;7.508;2022-08-21T16:53:32;27.00;2.50
528;DHT22;250;47.712;7.508;2022-08-21T16:55:59;27.00;2.70
528;DHT22;250;47.712;7.508;2022-08-21T16:58:30;27.00;2.70